sensor_id;sensor_type;location;lat;lon;timestamp;temperature;humidity
78536;SHT31;67829;51.968;5.684;2023-03-01T00:01:45;3.4;46.5
78536;SHT31;67829;51.968;5.684;2023-03-01T00:04:16;3.4;46.5
78536;SHT31;67829;51.968;5.684;2023-03-01T00:06:45;3.4;46.6
78536;SHT31;67829;51.968;5.684;2023-03-01T00:09:14;3.4;46.5
78536;SHT31;67829;51.968;5.684;2023-03-01T00:11:43;3.4;46.6
78536;SHT31;67829;51.968;5.684;2023-03-01T00:14:13;3.4;46.7
78536;SHT31;67829;51.968;5.684;2023-03-01T00:16:43;3.4;46.8
78536;SHT31;67829;51.968;5.684;2023-03-01T00:19:15;3.4;46.7
78536;SHT31;67829;51.968;5.684;2023-03-01T00:21:45;3.4;46.8
78536;SHT31;67829;51.968;5.684;2023-03-01T00:24:14;3.4;46.9
78536;SHT31;67829;51.968;5.684;2023-03-01T00:26:43;3.4;46.9
78536;SHT31;67829;51.968;5.684;2023-03-01T00:29:12;3.4;47.0
78536;SHT31;67829;51.968;5.684;2023-03-01T00:31:41;3.4;47.0
78536;SHT31;67829;51.968;5.684;2023-03-01T00:34:09;3.4;47.2
78536;SHT31;67829;51.968;5.684;2023-03-01T00:36:38;3.4;47.3
78536;SHT31;67829;51.968;5.684;2023-03-01T00:39:11;3.4;47.3
78536;SHT31;67829;51.968;5.684;2023-03-01T00:41:40;3.4;47.3
78536;SHT31;67829;51.968;5.684;2023-03-01T00:44:09;3.3;47.4
78536;SHT31;67829;51.968;5.684;2023-03-01T00:46:38;3.3;47.4
78536;SHT31;67829;51.968;5.684;2023-03-01T00:49:06;3.3;47.5
78536;SHT31;67829;51.968;5.684;2023-03-01T00:51:35;3.3;47.6
78536;SHT31;67829;51.968;5.684;2023-03-01T00:54:05;3.3;47.6
78536;SHT31;67829;51.968;5.684;2023-03-01T00:56:34;3.2;47.7
78536;SHT31;67829;51.968;5.684;2023-03-01T00:59:03;3.2;47.7
78536;SHT31;67829;51.968;5.684;2023-03-01T01:01:31;3.2;47.8
78536;SHT31;67829;51.968;5.684;2023-03-01T01:04:02;3.2;48.0
78536;SHT31;67829;51.968;5.684;2023-03-01T01:06:33;3.2;48.0
78536;SHT31;67829;51.968;5.684;2023-03-01T01:09:03;3.1;48.0
78536;SHT31;67829;51.968;5.684;2023-03-01T01:11:32;3.1;48.0
78536;SHT31;67829;51.968;5.684;2023-03-01T01:14:02;3.1;48.1
78536;SHT31;67829;51.968;5.684;2023-03-01T01:16:31;3.1;48.3
78536;SHT31;67829;51.968;5.684;2023-03-01T01:18:59;3.0;48.4
78536;SHT31;67829;51.968;5.684;2023-03-01T01:21:28;3.0;48.5
78536;SHT31;67829;51.968;5.684;2023-03-01T01:23:57;3.0;48.6
78536;SHT31;67829;51.968;5.684;2023-03-01T01:26:28;3.0;48.7
78536;SHT31;67829;51.968;5.684;2023-03-01T01:28:58;2.9;48.9
78536;SHT31;67829;51.968;5.684;2023-03-01T01:31:28;2.9;48.9
78536;SHT31;67829;51.968;5.684;2023-03-01T01:33:59;2.9;49.0
78536;SHT31;67829;51.968;5.684;2023-03-01T01:36:28;2.8;49.0
78536;SHT31;67829;51.968;5.684;2023-03-01T01:38:57;2.8;49.1
78536;SHT31;67829;51.968;5.684;2023-03-01T01:41:27;2.8;49.2
78536;SHT31;67829;51.968;5.684;2023-03-01T01:44:14;2.8;49.3
78536;SHT31;67829;51.968;5.684;2023-03-01T01:46:44;2.8;49.3
78536;SHT31;67829;51.968;5.684;2023-03-01T01:49:19;2.7;49.4
78536;SHT31;67829;51.968;5.684;2023-03-01T01:51:55;2.7;49.5
78536;SHT31;67829;51.968;5.684;2023-03-01T01:54:27;2.7;49.6
78536;SHT31;67829;51.968;5.684;2023-03-01T01:57:01;2.7;49.7
78536;SHT31;67829;51.968;5.684;2023-03-01T01:59:33;2.7;49.6
78536;SHT31;67829;51.968;5.684;2023-03-01T02:02:05;2.7;49.6
78536;SHT31;67829;51.968;5.684;2023-03-01T02:04:34;2.6;49.7
78536;SHT31;67829;51.968;5.684;2023-03-01T02:07:09;2.6;49.6
78536;SHT31;67829;51.968;5.684;2023-03-01T02:09:39;2.6;49.7
78536;SHT31;67829;51.968;5.684;2023-03-01T02:12:09;2.6;49.7
78536;SHT31;67829;51.968;5.684;2023-03-01T02:14:38;2.6;49.7
78536;SHT31;67829;51.968;5.684;2023-03-01T02:17:06;2.5;49.7
78536;SHT31;67829;51.968;5.684;2023-03-01T02:19:47;2.5;49.7
78536;SHT31;67829;51.968;5.684;2023-03-01T02:22:24;2.5;49.9
78536;SHT31;67829;51.968;5.684;2023-03-01T02:25:06;2.5;49.8
78536;SHT31;67829;51.968;5.684;2023-03-01T02:27:48;2.5;49.8
78536;SHT31;67829;51.968;5.684;2023-03-01T02:30:18;2.5;50.0
78536;SHT31;67829;51.968;5.684;2023-03-01T02:32:48;2.5;49.9
78536;SHT31;67829;51.968;5.684;2023-03-01T02:35:18;2.5;49.7
78536;SHT31;67829;51.968;5.684;2023-03-01T02:37:48;2.5;49.7
78536;SHT31;67829;51.968;5.684;2023-03-01T02:40:18;2.5;49.7
78536;SHT31;67829;51.968;5.684;2023-03-01T02:42:53;2.5;49.7
78536;SHT31;67829;51.968;5.684;2023-03-01T02:45:23;2.5;49.6
78536;SHT31;67829;51.968;5.684;2023-03-01T02:47:53;2.5;49.6
78536;SHT31;67829;51.968;5.684;2023-03-01T02:50:40;2.5;49.5
78536;SHT31;67829;51.968;5.684;2023-03-01T02:53:15;2.5;49.6
78536;SHT31;67829;51.968;5.684;2023-03-01T02:55:45;2.5;49.7
78536;SHT31;67829;51.968;5.684;2023-03-01T02:58:16;2.5;49.8
78536;SHT31;67829;51.968;5.684;2023-03-01T03:00:46;2.5;49.7
78536;SHT31;67829;51.968;5.684;2023-03-01T03:03:17;2.5;49.7
78536;SHT31;67829;51.968;5.684;2023-03-01T03:05:47;2.5;49.8
78536;SHT31;67829;51.968;5.684;2023-03-01T03:08:16;2.5;49.8
78536;SHT31;67829;51.968;5.684;2023-03-01T03:10:50;2.5;49.8
78536;SHT31;67829;51.968;5.684;2023-03-01T03:13:19;2.5;49.9
78536;SHT31;67829;51.968;5.684;2023-03-01T03:15:48;2.5;49.9
78536;SHT31;67829;51.968;5.684;2023-03-01T03:18:17;2.5;49.9
78536;SHT31;67829;51.968;5.684;2023-03-01T03:20:46;2.5;49.9
78536;SHT31;67829;51.968;5.684;2023-03-01T03:23:19;2.5;49.9
78536;SHT31;67829;51.968;5.684;2023-03-01T03:25:50;2.5;49.9
78536;SHT31;67829;51.968;5.684;2023-03-01T03:28:18;2.5;49.9
78536;SHT31;67829;51.968;5.684;2023-03-01T03:30:47;2.5;50.0
78536;SHT31;67829;51.968;5.684;2023-03-01T03:33:16;2.5;50.0
78536;SHT31;67829;51.968;5.684;2023-03-01T03:35:46;2.5;50.0
78536;SHT31;67829;51.968;5.684;2023-03-01T03:38:18;2.5;50.0
78536;SHT31;67829;51.968;5.684;2023-03-01T03:40:50;2.5;50.2
78536;SHT31;67829;51.968;5.684;2023-03-01T03:43:21;2.5;50.2
78536;SHT31;67829;51.968;5.684;2023-03-01T03:45:51;2.5;50.2
78536;SHT31;67829;51.968;5.684;2023-03-01T03:48:20;2.5;50.1
78536;SHT31;67829;51.968;5.684;2023-03-01T03:50:50;2.5;50.1
78536;SHT31;67829;51.968;5.684;2023-03-01T03:53:20;2.5;50.3
78536;SHT31;67829;51.968;5.684;2023-03-01T03:55:49;2.5;50.3
78536;SHT31;67829;51.968;5.684;2023-03-01T03:58:20;2.5;50.3
78536;SHT31;67829;51.968;5.684;2023-03-01T04:00:51;2.5;50.4
78536;SHT31;67829;51.968;5.684;2023-03-01T04:03:20;2.5;50.5
78536;SHT31;67829;51.968;5.684;2023-03-01T04:05:50;2.4;50.3
78536;SHT31;67829;51.968;5.684;2023-03-01T04:08:20;2.4;50.5
78536;SHT31;67829;51.968;5.684;2023-03-01T04:10:51;2.4;50.5
78536;SHT31;67829;51.968;5.684;2023-03-01T04:13:21;2.4;50.5
78536;SHT31;67829;51.968;5.684;2023-03-01T04:15:52;2.4;50.5
78536;SHT31;67829;51.968;5.684;2023-03-01T04:18:23;2.4;50.6
78536;SHT31;67829;51.968;5.684;2023-03-01T04:20:55;2.4;50.7
78536;SHT31;67829;51.968;5.684;2023-03-01T04:23:23;2.4;50.7
78536;SHT31;67829;51.968;5.684;2023-03-01T04:25:54;2.4;50.8
78536;SHT31;67829;51.968;5.684;2023-03-01T04:28:25;2.4;50.9
78536;SHT31;67829;51.968;5.684;2023-03-01T04:30:55;2.4;50.8
78536;SHT31;67829;51.968;5.684;2023-03-01T04:33:25;2.4;50.9
78536;SHT31;67829;51.968;5.684;2023-03-01T04:35:54;2.4;50.9
78536;SHT31;67829;51.968;5.684;2023-03-01T04:38:23;2.4;50.9
78536;SHT31;67829;51.968;5.684;2023-03-01T04:40:52;2.4;51.0
78536;SHT31;67829;51.968;5.684;2023-03-01T04:43:20;2.4;51.0
78536;SHT31;67829;51.968;5.684;2023-03-01T04:45:49;2.4;51.1
78536;SHT31;67829;51.968;5.684;2023-03-01T04:48:17;2.4;51.2
78536;SHT31;67829;51.968;5.684;2023-03-01T04:50:46;2.3;51.2
78536;SHT31;67829;51.968;5.684;2023-03-01T04:53:14;2.3;51.2
78536;SHT31;67829;51.968;5.684;2023-03-01T04:55:45;2.3;51.3
78536;SHT31;67829;51.968;5.684;2023-03-01T04:58:13;2.3;51.3
78536;SHT31;67829;51.968;5.684;2023-03-01T05:00:42;2.3;51.4
78536;SHT31;67829;51.968;5.684;2023-03-01T05:03:12;2.3;51.3
78536;SHT31;67829;51.968;5.684;2023-03-01T05:05:48;2.3;51.4
78536;SHT31;67829;51.968;5.684;2023-03-01T05:08:17;2.3;51.5
78536;SHT31;67829;51.968;5.684;2023-03-01T05:10:49;2.3;51.6
78536;SHT31;67829;51.968;5.684;2023-03-01T05:13:20;2.3;51.5
78536;SHT31;67829;51.968;5.684;2023-03-01T05:15:54;2.3;51.6
78536;SHT31;67829;51.968;5.684;2023-03-01T05:18:23;2.3;51.6
78536;SHT31;67829;51.968;5.684;2023-03-01T05:20:52;2.3;51.6
78536;SHT31;67829;51.968;5.684;2023-03-01T05:23:24;2.3;51.6
78536;SHT31;67829;51.968;5.684;2023-03-01T05:25:56;2.2;51.6
78536;SHT31;67829;51.968;5.684;2023-03-01T05:28:26;2.2;51.6
78536;SHT31;67829;51.968;5.684;2023-03-01T05:30:57;2.2;51.6
78536;SHT31;67829;51.968;5.684;2023-03-01T05:33:26;2.2;51.7
78536;SHT31;67829;51.968;5.684;2023-03-01T05:35:59;2.2;51.7
78536;SHT31;67829;51.968;5.684;2023-03-01T05:38:28;2.2;51.8
78536;SHT31;67829;51.968;5.684;2023-03-01T05:40:59;2.2;51.8
78536;SHT31;67829;51.968;5.684;2023-03-01T05:43:30;2.2;51.9
78536;SHT31;67829;51.968;5.684;2023-03-01T05:46:02;2.2;51.9
78536;SHT31;67829;51.968;5.684;2023-03-01T05:48:30;2.2;52.0
78536;SHT31;67829;51.968;5.684;2023-03-01T05:50:59;2.2;52.0
78536;SHT31;67829;51.968;5.684;2023-03-01T05:53:28;2.2;52.1
78536;SHT31;67829;51.968;5.684;2023-03-01T05:55:56;2.2;52.1
78536;SHT31;67829;51.968;5.684;2023-03-01T05:58:25;2.2;52.2
78536;SHT31;67829;51.968;5.684;2023-03-01T06:00:54;2.2;52.3
78536;SHT31;67829;51.968;5.684;2023-03-01T06:03:22;2.2;52.3
78536;SHT31;67829;51.968;5.684;2023-03-01T06:05:55;2.1;52.3
78536;SHT31;67829;51.968;5.684;2023-03-01T06:08:26;2.1;52.3
78536;SHT31;67829;51.968;5.684;2023-03-01T06:10:55;2.1;52.4
78536;SHT31;67829;51.968;5.684;2023-03-01T06:13:24;2.1;52.4
78536;SHT31;67829;51.968;5.684;2023-03-01T06:15:52;2.1;52.6
78536;SHT31;67829;51.968;5.684;2023-03-01T06:18:21;2.1;52.8
78536;SHT31;67829;51.968;5.684;2023-03-01T06:20:55;2.1;52.8
78536;SHT31;67829;51.968;5.684;2023-03-01T06:23:24;2.1;52.7
78536;SHT31;67829;51.968;5.684;2023-03-01T06:25:53;2.1;52.8
78536;SHT31;67829;51.968;5.684;2023-03-01T06:28:21;2.1;52.8
78536;SHT31;67829;51.968;5.684;2023-03-01T06:30:50;2.1;52.9
78536;SHT31;67829;51.968;5.684;2023-03-01T06:33:19;2.1;52.9
78536;SHT31;67829;51.968;5.684;2023-03-01T06:35:53;2.1;52.8
78536;SHT31;67829;51.968;5.684;2023-03-01T06:38:22;2.1;52.9
78536;SHT31;67829;51.968;5.684;2023-03-01T06:40:54;2.1;52.9
78536;SHT31;67829;51.968;5.684;2023-03-01T06:43:24;2.1;52.8
78536;SHT31;67829;51.968;5.684;2023-03-01T06:45:52;2.1;52.8
78536;SHT31;67829;51.968;5.684;2023-03-01T06:48:21;2.1;52.8
78536;SHT31;67829;51.968;5.684;2023-03-01T06:50:49;2.2;52.8
78536;SHT31;67829;51.968;5.684;2023-03-01T06:53:18;2.2;52.8
78536;SHT31;67829;51.968;5.684;2023-03-01T06:55:46;2.2;53.0
78536;SHT31;67829;51.968;5.684;2023-03-01T06:58:15;2.2;53.0
78536;SHT31;67829;51.968;5.684;2023-03-01T07:00:43;2.2;53.2
78536;SHT31;67829;51.968;5.684;2023-03-01T07:03:11;2.2;53.0
78536;SHT31;67829;51.968;5.684;2023-03-01T07:05:40;2.3;53.0
78536;SHT31;67829;51.968;5.684;2023-03-01T07:08:09;2.3;52.9
78536;SHT31;67829;51.968;5.684;2023-03-01T07:10:37;2.3;52.8
78536;SHT31;67829;51.968;5.684;2023-03-01T07:13:06;2.4;52.7
78536;SHT31;67829;51.968;5.684;2023-03-01T07:15:36;2.4;52.7
78536;SHT31;67829;51.968;5.684;2023-03-01T07:18:07;2.5;52.7
78536;SHT31;67829;51.968;5.684;2023-03-01T07:20:38;2.5;52.6
78536;SHT31;67829;51.968;5.684;2023-03-01T07:23:06;2.5;52.5
78536;SHT31;67829;51.968;5.684;2023-03-01T07:25:35;2.6;52.5
78536;SHT31;67829;51.968;5.684;2023-03-01T07:28:04;2.6;52.4
78536;SHT31;67829;51.968;5.684;2023-03-01T07:30:34;2.6;52.3
78536;SHT31;67829;51.968;5.684;2023-03-01T07:33:03;2.7;51.9
78536;SHT31;67829;51.968;5.684;2023-03-01T07:35:32;2.7;52.2
78536;SHT31;67829;51.968;5.684;2023-03-01T07:38:00;2.7;52.2
78536;SHT31;67829;51.968;5.684;2023-03-01T07:40:29;2.8;51.9
78536;SHT31;67829;51.968;5.684;2023-03-01T07:42:58;2.8;51.8
78536;SHT31;67829;51.968;5.684;2023-03-01T07:45:28;2.8;51.9
78536;SHT31;67829;51.968;5.684;2023-03-01T07:47:56;2.8;52.0
78536;SHT31;67829;51.968;5.684;2023-03-01T07:50:25;2.9;52.0
78536;SHT31;67829;51.968;5.684;2023-03-01T07:52:53;2.9;51.5
78536;SHT31;67829;51.968;5.684;2023-03-01T07:55:22;3.0;51.7
78536;SHT31;67829;51.968;5.684;2023-03-01T07:57:51;3.0;51.5
78536;SHT31;67829;51.968;5.684;2023-03-01T08:00:20;3.0;51.1
78536;SHT31;67829;51.968;5.684;2023-03-01T08:02:48;3.1;51.1
78536;SHT31;67829;51.968;5.684;2023-03-01T08:05:17;3.1;51.1
78536;SHT31;67829;51.968;5.684;2023-03-01T08:07:48;3.1;51.0
78536;SHT31;67829;51.968;5.684;2023-03-01T08:10:17;3.2;50.9
78536;SHT31;67829;51.968;5.684;2023-03-01T08:15:11;3.3;50.6
78536;SHT31;67829;51.968;5.684;2023-03-01T08:17:39;3.3;50.3
78536;SHT31;67829;51.968;5.684;2023-03-01T08:20:09;3.4;50.4
78536;SHT31;67829;51.968;5.684;2023-03-01T08:22:38;3.4;50.6
78536;SHT31;67829;51.968;5.684;2023-03-01T08:25:07;3.5;50.2
78536;SHT31;67829;51.968;5.684;2023-03-01T08:27:36;3.5;50.2
78536;SHT31;67829;51.968;5.684;2023-03-01T08:30:06;3.5;50.2
78536;SHT31;67829;51.968;5.684;2023-03-01T08:32:37;3.6;50.5
78536;SHT31;67829;51.968;5.684;2023-03-01T08:35:09;3.6;50.3
78536;SHT31;67829;51.968;5.684;2023-03-01T08:37:39;3.6;49.9
78536;SHT31;67829;51.968;5.684;2023-03-01T08:40:09;3.7;50.3
78536;SHT31;67829;51.968;5.684;2023-03-01T08:42:40;3.7;50.3
78536;SHT31;67829;51.968;5.684;2023-03-01T08:45:10;3.8;50.5
78536;SHT31;67829;51.968;5.684;2023-03-01T08:47:40;3.8;50.4
78536;SHT31;67829;51.968;5.684;2023-03-01T08:50:09;3.9;49.8
78536;SHT31;67829;51.968;5.684;2023-03-01T08:52:38;3.9;50.0
78536;SHT31;67829;51.968;5.684;2023-03-01T08:55:08;4.0;50.3
78536;SHT31;67829;51.968;5.684;2023-03-01T08:57:37;4.0;50.1
78536;SHT31;67829;51.968;5.684;2023-03-01T09:00:06;4.1;49.6
78536;SHT31;67829;51.968;5.684;2023-03-01T09:02:37;4.1;49.4
78536;SHT31;67829;51.968;5.684;2023-03-01T09:05:07;4.2;49.6
78536;SHT31;67829;51.968;5.684;2023-03-01T09:07:36;4.2;49.5
78536;SHT31;67829;51.968;5.684;2023-03-01T09:10:05;4.3;49.7
78536;SHT31;67829;51.968;5.684;2023-03-01T09:12:34;4.3;49.4
78536;SHT31;67829;51.968;5.684;2023-03-01T09:15:03;4.4;49.7
78536;SHT31;67829;51.968;5.684;2023-03-01T09:17:31;4.5;49.2
78536;SHT31;67829;51.968;5.684;2023-03-01T09:20:00;4.5;49.7
78536;SHT31;67829;51.968;5.684;2023-03-01T09:22:33;4.6;49.9
78536;SHT31;67829;51.968;5.684;2023-03-01T09:25:02;4.6;48.5
78536;SHT31;67829;51.968;5.684;2023-03-01T09:27:30;4.7;49.1
78536;SHT31;67829;51.968;5.684;2023-03-01T09:30:01;4.8;48.8
78536;SHT31;67829;51.968;5.684;2023-03-01T09:32:31;4.8;48.5
78536;SHT31;67829;51.968;5.684;2023-03-01T09:35:00;4.9;48.5
78536;SHT31;67829;51.968;5.684;2023-03-01T09:37:36;5.0;48.4
78536;SHT31;67829;51.968;5.684;2023-03-01T09:40:11;5.0;48.2
78536;SHT31;67829;51.968;5.684;2023-03-01T09:42:51;5.1;47.0
78536;SHT31;67829;51.968;5.684;2023-03-01T09:45:27;5.2;46.7
78536;SHT31;67829;51.968;5.684;2023-03-01T09:47:56;5.3;46.7
78536;SHT31;67829;51.968;5.684;2023-03-01T09:50:30;5.3;46.2
78536;SHT31;67829;51.968;5.684;2023-03-01T09:53:04;5.4;45.9
78536;SHT31;67829;51.968;5.684;2023-03-01T09:55:42;5.4;45.1
78536;SHT31;67829;51.968;5.684;2023-03-01T09:58:37;5.5;45.4
78536;SHT31;67829;51.968;5.684;2023-03-01T10:01:29;5.6;45.2
78536;SHT31;67829;51.968;5.684;2023-03-01T10:04:16;5.6;44.7
78536;SHT31;67829;51.968;5.684;2023-03-01T10:06:55;5.7;44.7
78536;SHT31;67829;51.968;5.684;2023-03-01T10:09:32;5.8;44.3
78536;SHT31;67829;51.968;5.684;2023-03-01T10:12:07;5.8;43.9
78536;SHT31;67829;51.968;5.684;2023-03-01T10:14:40;5.9;42.6
78536;SHT31;67829;51.968;5.684;2023-03-01T10:17:19;5.9;42.5
78536;SHT31;67829;51.968;5.684;2023-03-01T10:19:52;6.0;42.0
78536;SHT31;67829;51.968;5.684;2023-03-01T10:22:24;6.0;42.6
78536;SHT31;67829;51.968;5.684;2023-03-01T10:24:57;6.0;43.0
78536;SHT31;67829;51.968;5.684;2023-03-01T10:27:35;6.0;41.9
78536;SHT31;67829;51.968;5.684;2023-03-01T10:30:16;6.1;43.1
78536;SHT31;67829;51.968;5.684;2023-03-01T10:32:48;6.1;42.7
78536;SHT31;67829;51.968;5.684;2023-03-01T10:35:21;6.1;42.5
78536;SHT31;67829;51.968;5.684;2023-03-01T10:38:03;6.2;42.3
78536;SHT31;67829;51.968;5.684;2023-03-01T10:40:33;6.2;42.0
78536;SHT31;67829;51.968;5.684;2023-03-01T10:43:04;6.3;42.6
78536;SHT31;67829;51.968;5.684;2023-03-01T10:45:36;6.3;41.2
78536;SHT31;67829;51.968;5.684;2023-03-01T10:48:12;6.4;41.4
78536;SHT31;67829;51.968;5.684;2023-03-01T10:50:43;6.4;40.1
78536;SHT31;67829;51.968;5.684;2023-03-01T10:53:27;6.4;40.6
78536;SHT31;67829;51.968;5.684;2023-03-01T10:56:01;6.5;40.7
78536;SHT31;67829;51.968;5.684;2023-03-01T10:58:31;6.5;40.0
78536;SHT31;67829;51.968;5.684;2023-03-01T11:01:04;6.6;39.8
78536;SHT31;67829;51.968;5.684;2023-03-01T11:03:34;6.6;39.6
78536;SHT31;67829;51.968;5.684;2023-03-01T11:06:12;6.7;39.2
78536;SHT31;67829;51.968;5.684;2023-03-01T11:08:41;6.7;38.0
78536;SHT31;67829;51.968;5.684;2023-03-01T11:11:20;6.7;38.2
78536;SHT31;67829;51.968;5.684;2023-03-01T11:13:55;6.8;39.1
78536;SHT31;67829;51.968;5.684;2023-03-01T11:16:27;6.8;38.9
78536;SHT31;67829;51.968;5.684;2023-03-01T11:19:12;6.8;38.9
78536;SHT31;67829;51.968;5.684;2023-03-01T11:21:41;6.9;38.8
78536;SHT31;67829;51.968;5.684;2023-03-01T11:24:14;6.9;38.6
78536;SHT31;67829;51.968;5.684;2023-03-01T11:26:47;6.9;38.9
78536;SHT31;67829;51.968;5.684;2023-03-01T11:29:29;7.0;38.7
78536;SHT31;67829;51.968;5.684;2023-03-01T11:32:04;7.0;38.1
78536;SHT31;67829;51.968;5.684;2023-03-01T11:34:42;7.0;37.9
78536;SHT31;67829;51.968;5.684;2023-03-01T11:37:26;7.1;38.2
78536;SHT31;67829;51.968;5.684;2023-03-01T11:40:02;7.1;37.7
78536;SHT31;67829;51.968;5.684;2023-03-01T11:42:46;7.1;37.3
78536;SHT31;67829;51.968;5.684;2023-03-01T11:45:16;7.2;38.0
78536;SHT31;67829;51.968;5.684;2023-03-01T11:48:27;7.2;38.2
78536;SHT31;67829;51.968;5.684;2023-03-01T11:51:08;7.2;38.5
78536;SHT31;67829;51.968;5.684;2023-03-01T11:53:52;7.3;38.0
78536;SHT31;67829;51.968;5.684;2023-03-01T11:56:29;7.3;37.8
78536;SHT31;67829;51.968;5.684;2023-03-01T11:59:10;7.3;38.5
78536;SHT31;67829;51.968;5.684;2023-03-01T12:01:55;7.4;38.4
78536;SHT31;67829;51.968;5.684;2023-03-01T12:04:38;7.4;36.9
78536;SHT31;67829;51.968;5.684;2023-03-01T12:07:17;7.4;36.7
78536;SHT31;67829;51.968;5.684;2023-03-01T12:10:07;7.5;37.0
78536;SHT31;67829;51.968;5.684;2023-03-01T12:12:48;7.5;36.0
78536;SHT31;67829;51.968;5.684;2023-03-01T12:15:42;7.6;36.3
78536;SHT31;67829;51.968;5.684;2023-03-01T12:18:30;7.6;36.0
78536;SHT31;67829;51.968;5.684;2023-03-01T12:21:13;7.6;36.0
78536;SHT31;67829;51.968;5.684;2023-03-01T12:27:46;7.7;35.4
78536;SHT31;67829;51.968;5.684;2023-03-01T12:30:29;7.8;35.3
78536;SHT31;67829;51.968;5.684;2023-03-01T12:33:17;7.8;35.8
78536;SHT31;67829;51.968;5.684;2023-03-01T12:35:56;7.8;35.9
78536;SHT31;67829;51.968;5.684;2023-03-01T12:38:41;7.9;34.6
78536;SHT31;67829;51.968;5.684;2023-03-01T12:41:33;7.9;34.5
78536;SHT31;67829;51.968;5.684;2023-03-01T12:44:13;7.9;36.2
78536;SHT31;67829;51.968;5.684;2023-03-01T12:46:53;8.0;37.0
78536;SHT31;67829;51.968;5.684;2023-03-01T12:49:28;8.0;35.8
78536;SHT31;67829;51.968;5.684;2023-03-01T12:52:03;8.0;35.4
78536;SHT31;67829;51.968;5.684;2023-03-01T12:54:36;8.0;36.0
78536;SHT31;67829;51.968;5.684;2023-03-01T12:57:14;8.0;36.1
78536;SHT31;67829;51.968;5.684;2023-03-01T12:59:58;8.1;35.7
78536;SHT31;67829;51.968;5.684;2023-03-01T13:02:35;8.1;35.8
78536;SHT31;67829;51.968;5.684;2023-03-01T13:05:26;8.1;35.7
78536;SHT31;67829;51.968;5.684;2023-03-01T13:08:08;8.2;36.0
78536;SHT31;67829;51.968;5.684;2023-03-01T13:10:46;8.2;35.3
78536;SHT31;67829;51.968;5.684;2023-03-01T13:13:22;8.3;35.0
78536;SHT31;67829;51.968;5.684;2023-03-01T13:15:51;8.3;36.1
78536;SHT31;67829;51.968;5.684;2023-03-01T13:18:32;8.3;35.7
78536;SHT31;67829;51.968;5.684;2023-03-01T13:21:02;8.3;35.7
78536;SHT31;67829;51.968;5.684;2023-03-01T13:23:34;8.4;36.3
78536;SHT31;67829;51.968;5.684;2023-03-01T13:26:15;8.4;36.5
78536;SHT31;67829;51.968;5.684;2023-03-01T13:29:02;8.4;36.0
78536;SHT31;67829;51.968;5.684;2023-03-01T13:33:46;8.4;36.4
78536;SHT31;67829;51.968;5.684;2023-03-01T13:36:48;8.5;36.2
78536;SHT31;67829;51.968;5.684;2023-03-01T13:39:32;8.5;36.4
78536;SHT31;67829;51.968;5.684;2023-03-01T13:43:12;8.5;36.4
78536;SHT31;67829;51.968;5.684;2023-03-01T13:45:46;8.6;35.8
78536;SHT31;67829;51.968;5.684;2023-03-01T13:48:24;8.6;35.9
78536;SHT31;67829;51.968;5.684;2023-03-01T13:50:57;8.6;36.3
78536;SHT31;67829;51.968;5.684;2023-03-01T13:53:31;8.7;35.9
78536;SHT31;67829;51.968;5.684;2023-03-01T13:56:06;8.7;35.7
78536;SHT31;67829;51.968;5.684;2023-03-01T13:58:46;8.7;35.7
78536;SHT31;67829;51.968;5.684;2023-03-01T14:01:23;8.7;35.0
78536;SHT31;67829;51.968;5.684;2023-03-01T14:03:52;8.7;35.8
78536;SHT31;67829;51.968;5.684;2023-03-01T14:06:23;8.8;35.9
78536;SHT31;67829;51.968;5.684;2023-03-01T14:09:04;8.8;35.2
78536;SHT31;67829;51.968;5.684;2023-03-01T14:11:52;8.8;35.3
78536;SHT31;67829;51.968;5.684;2023-03-01T14:15:17;8.8;35.3
78536;SHT31;67829;51.968;5.684;2023-03-01T14:18:28;8.8;35.5
78536;SHT31;67829;51.968;5.684;2023-03-01T14:20:58;8.8;35.4
78536;SHT31;67829;51.968;5.684;2023-03-01T14:23:27;8.9;35.4
78536;SHT31;67829;51.968;5.684;2023-03-01T14:25:57;8.9;35.3
78536;SHT31;67829;51.968;5.684;2023-03-01T14:28:28;8.9;35.1
78536;SHT31;67829;51.968;5.684;2023-03-01T14:30:59;8.9;34.8
78536;SHT31;67829;51.968;5.684;2023-03-01T14:33:30;8.9;34.5
78536;SHT31;67829;51.968;5.684;2023-03-01T14:36:02;8.9;34.8
78536;SHT31;67829;51.968;5.684;2023-03-01T14:38:33;8.9;34.3
78536;SHT31;67829;51.968;5.684;2023-03-01T14:41:06;8.9;34.7
78536;SHT31;67829;51.968;5.684;2023-03-01T14:43:37;8.9;34.5
78536;SHT31;67829;51.968;5.684;2023-03-01T14:46:18;8.9;34.8
78536;SHT31;67829;51.968;5.684;2023-03-01T14:48:50;8.9;35.1
78536;SHT31;67829;51.968;5.684;2023-03-01T14:51:19;8.9;35.2
78536;SHT31;67829;51.968;5.684;2023-03-01T14:53:49;8.9;35.0
78536;SHT31;67829;51.968;5.684;2023-03-01T14:56:19;8.9;34.5
78536;SHT31;67829;51.968;5.684;2023-03-01T14:58:51;8.9;35.0
78536;SHT31;67829;51.968;5.684;2023-03-01T15:01:20;8.9;34.8
78536;SHT31;67829;51.968;5.684;2023-03-01T15:03:51;8.9;34.6
78536;SHT31;67829;51.968;5.684;2023-03-01T15:06:22;8.9;34.4
78536;SHT31;67829;51.968;5.684;2023-03-01T15:08:55;8.9;34.6
78536;SHT31;67829;51.968;5.684;2023-03-01T15:11:29;8.9;34.2
78536;SHT31;67829;51.968;5.684;2023-03-01T15:13:59;8.9;34.6
78536;SHT31;67829;51.968;5.684;2023-03-01T15:16:30;8.9;34.3
78536;SHT31;67829;51.968;5.684;2023-03-01T15:19:01;8.9;34.8
78536;SHT31;67829;51.968;5.684;2023-03-01T15:21:33;8.9;34.1
78536;SHT31;67829;51.968;5.684;2023-03-01T15:24:06;8.9;33.8
78536;SHT31;67829;51.968;5.684;2023-03-01T15:26:44;8.9;33.9
78536;SHT31;67829;51.968;5.684;2023-03-01T15:29:17;8.9;33.8
78536;SHT31;67829;51.968;5.684;2023-03-01T15:31:56;8.9;33.6
78536;SHT31;67829;51.968;5.684;2023-03-01T15:34:28;8.9;33.5
78536;SHT31;67829;51.968;5.684;2023-03-01T15:36:59;8.9;33.3
78536;SHT31;67829;51.968;5.684;2023-03-01T15:39:40;8.9;33.5
78536;SHT31;67829;51.968;5.684;2023-03-01T15:42:12;8.9;33.5
78536;SHT31;67829;51.968;5.684;2023-03-01T15:44:43;8.9;34.0
78536;SHT31;67829;51.968;5.684;2023-03-01T15:47:34;8.8;33.4
78536;SHT31;67829;51.968;5.684;2023-03-01T15:50:03;8.8;33.2
78536;SHT31;67829;51.968;5.684;2023-03-01T15:52:35;8.8;33.0
78536;SHT31;67829;51.968;5.684;2023-03-01T15:55:17;8.8;32.8
78536;SHT31;67829;51.968;5.684;2023-03-01T15:57:47;8.8;33.0
78536;SHT31;67829;51.968;5.684;2023-03-01T16:00:17;8.8;33.0
78536;SHT31;67829;51.968;5.684;2023-03-01T16:02:46;8.8;33.2
78536;SHT31;67829;51.968;5.684;2023-03-01T16:05:20;8.8;33.3
78536;SHT31;67829;51.968;5.684;2023-03-01T16:07:51;8.8;33.6
78536;SHT31;67829;51.968;5.684;2023-03-01T16:10:21;8.8;33.4
78536;SHT31;67829;51.968;5.684;2023-03-01T16:12:50;8.9;33.0
78536;SHT31;67829;51.968;5.684;2023-03-01T16:15:22;8.9;33.3
78536;SHT31;67829;51.968;5.684;2023-03-01T16:17:51;8.9;32.9
78536;SHT31;67829;51.968;5.684;2023-03-01T16:20:20;9.0;33.3
78536;SHT31;67829;51.968;5.684;2023-03-01T16:22:50;9.0;32.0
78536;SHT31;67829;51.968;5.684;2023-03-01T16:25:20;9.1;32.5
78536;SHT31;67829;51.968;5.684;2023-03-01T16:27:50;9.2;32.3
78536;SHT31;67829;51.968;5.684;2023-03-01T16:30:21;9.2;31.9
78536;SHT31;67829;51.968;5.684;2023-03-01T16:32:51;9.3;31.8
78536;SHT31;67829;51.968;5.684;2023-03-01T16:35:22;9.3;31.7
78536;SHT31;67829;51.968;5.684;2023-03-01T16:37:51;9.3;32.0
78536;SHT31;67829;51.968;5.684;2023-03-01T16:40:23;9.3;31.6
78536;SHT31;67829;51.968;5.684;2023-03-01T16:42:52;9.4;31.7
78536;SHT31;67829;51.968;5.684;2023-03-01T16:45:21;9.4;31.5
78536;SHT31;67829;51.968;5.684;2023-03-01T16:47:50;9.4;31.5
78536;SHT31;67829;51.968;5.684;2023-03-01T16:50:19;9.3;31.3
78536;SHT31;67829;51.968;5.684;2023-03-01T16:52:47;9.3;31.3
78536;SHT31;67829;51.968;5.684;2023-03-01T16:55:16;9.2;31.4
78536;SHT31;67829;51.968;5.684;2023-03-01T16:57:44;9.2;31.9
78536;SHT31;67829;51.968;5.684;2023-03-01T17:00:14;9.1;31.9
78536;SHT31;67829;51.968;5.684;2023-03-01T17:02:44;9.0;32.3